sensor_id;sensor_type;location;lat;lon;timestamp;P1;durP1;ratioP1;P2;durP2;ratioP2
83717;SDS011;73701;52.234;21.288;2024-03-08T00:01:39;99.70;;;50.43;;
83717;SDS011;73701;52.234;21.288;2024-03-08T00:04:05;108.30;;;49.78;;
83717;SDS011;73701;52.234;21.288;2024-03-08T00:06:31;102.60;;;50.63;;
83717;SDS011;73701;52.234;21.288;2024-03-08T00:08:56;112.45;;;50.83;;
83717;SDS011;73701;52.234;21.288;2024-03-08T00:11:22;106.18;;;49.60;;
83717;SDS011;73701;52.234;21.288;2024-03-08T00:13:50;99.03;;;48.55;;
83717;SDS011;73701;52.234;21.288;2024-03-08T00:16:17;95.50;;;48.28;;
83717;SDS011;73701;52.234;21.288;2024-03-08T00:18:44;100.35;;;45.13;;
83717;SDS011;73701;52.234;21.288;2024-03-08T00:21:09;101.00;;;50.03;;
83717;SDS011;73701;52.234;21.288;2024-03-08T00:23:35;98.70;;;50.50;;
83717;SDS011;73701;52.234;21.288;2024-03-08T00:26:01;99.38;;;51.10;;
83717;SDS011;73701;52.234;21.288;2024-03-08T00:28:28;100.93;;;50.10;;
83717;SDS011;73701;52.234;21.288;2024-03-08T00:30:53;95.67;;;48.13;;
83717;SDS011;73701;52.234;21.288;2024-03-08T00:33:19;110.80;;;49.70;;
83717;SDS011;73701;52.234;21.288;2024-03-08T00:35:44;102.03;;;49.23;;
83717;SDS011;73701;52.234;21.288;2024-03-08T00:38:09;114.33;;;55.40;;
83717;SDS011;73701;52.234;21.288;2024-03-08T00:40:35;113.70;;;51.83;;
83717;SDS011;73701;52.234;21.288;2024-03-08T00:43:00;106.47;;;52.57;;
83717;SDS011;73701;52.234;21.288;2024-03-08T00:45:25;103.53;;;53.27;;
83717;SDS011;73701;52.234;21.288;2024-03-08T00:47:50;109.40;;;53.97;;
83717;SDS011;73701;52.234;21.288;2024-03-08T00:50:16;105.28;;;54.78;;
83717;SDS011;73701;52.234;21.288;2024-03-08T00:52:43;112.32;;;51.35;;
83717;SDS011;73701;52.234;21.288;2024-03-08T00:55:08;104.30;;;52.35;;
83717;SDS011;73701;52.234;21.288;2024-03-08T00:57:35;107.93;;;52.53;;
83717;SDS011;73701;52.234;21.288;2024-03-08T01:00:02;99.13;;;50.83;;
83717;SDS011;73701;52.234;21.288;2024-03-08T01:02:28;103.72;;;51.25;;
83717;SDS011;73701;52.234;21.288;2024-03-08T01:04:54;104.57;;;50.28;;
83717;SDS011;73701;52.234;21.288;2024-03-08T01:07:19;112.40;;;50.53;;
83717;SDS011;73701;52.234;21.288;2024-03-08T01:09:44;104.97;;;49.90;;
83717;SDS011;73701;52.234;21.288;2024-03-08T01:12:10;106.65;;;48.67;;
83717;SDS011;73701;52.234;21.288;2024-03-08T01:14:36;104.87;;;49.90;;
83717;SDS011;73701;52.234;21.288;2024-03-08T01:17:01;110.97;;;51.70;;
83717;SDS011;73701;52.234;21.288;2024-03-08T01:19:26;106.28;;;53.35;;
83717;SDS011;73701;52.234;21.288;2024-03-08T01:21:52;108.90;;;50.87;;
83717;SDS011;73701;52.234;21.288;2024-03-08T01:24:17;109.50;;;51.05;;
83717;SDS011;73701;52.234;21.288;2024-03-08T01:26:42;99.90;;;50.80;;
83717;SDS011;73701;52.234;21.288;2024-03-08T01:29:08;105.73;;;51.90;;
83717;SDS011;73701;52.234;21.288;2024-03-08T01:31:33;111.28;;;53.45;;
83717;SDS011;73701;52.234;21.288;2024-03-08T01:33:59;104.43;;;50.92;;
83717;SDS011;73701;52.234;21.288;2024-03-08T01:36:24;106.07;;;52.75;;
83717;SDS011;73701;52.234;21.288;2024-03-08T01:38:50;108.75;;;51.65;;
83717;SDS011;73701;52.234;21.288;2024-03-08T01:41:15;116.70;;;53.33;;
83717;SDS011;73701;52.234;21.288;2024-03-08T01:43:42;105.15;;;48.70;;
83717;SDS011;73701;52.234;21.288;2024-03-08T01:46:08;112.00;;;52.38;;
83717;SDS011;73701;52.234;21.288;2024-03-08T01:48:36;103.78;;;51.80;;
83717;SDS011;73701;52.234;21.288;2024-03-08T01:51:01;112.70;;;52.15;;
83717;SDS011;73701;52.234;21.288;2024-03-08T01:53:27;96.72;;;49.15;;
83717;SDS011;73701;52.234;21.288;2024-03-08T01:55:54;109.82;;;50.50;;
83717;SDS011;73701;52.234;21.288;2024-03-08T01:58:24;106.82;;;50.63;;
83717;SDS011;73701;52.234;21.288;2024-03-08T02:00:53;104.95;;;49.17;;
83717;SDS011;73701;52.234;21.288;2024-03-08T02:03:19;109.95;;;52.90;;
83717;SDS011;73701;52.234;21.288;2024-03-08T02:05:45;108.85;;;50.88;;
83717;SDS011;73701;52.234;21.288;2024-03-08T02:08:11;106.82;;;52.10;;
83717;SDS011;73701;52.234;21.288;2024-03-08T02:10:39;109.18;;;51.78;;
83717;SDS011;73701;52.234;21.288;2024-03-08T02:13:11;108.40;;;49.22;;
83717;SDS011;73701;52.234;21.288;2024-03-08T02:16:10;101.45;;;49.58;;
83717;SDS011;73701;52.234;21.288;2024-03-08T02:18:29;114.28;;;49.33;;
83717;SDS011;73701;52.234;21.288;2024-03-08T02:20:55;112.07;;;51.45;;
83717;SDS011;73701;52.234;21.288;2024-03-08T02:23:22;106.55;;;51.75;;
83717;SDS011;73701;52.234;21.288;2024-03-08T02:25:48;104.75;;;46.38;;
83717;SDS011;73701;52.234;21.288;2024-03-08T02:28:14;106.78;;;51.55;;
83717;SDS011;73701;52.234;21.288;2024-03-08T02:30:39;107.10;;;50.80;;
83717;SDS011;73701;52.234;21.288;2024-03-08T02:33:05;108.40;;;52.13;;
83717;SDS011;73701;52.234;21.288;2024-03-08T02:35:34;102.80;;;47.20;;
83717;SDS011;73701;52.234;21.288;2024-03-08T02:38:00;106.10;;;47.03;;
83717;SDS011;73701;52.234;21.288;2024-03-08T02:40:26;114.05;;;49.30;;
83717;SDS011;73701;52.234;21.288;2024-03-08T02:42:51;106.30;;;47.03;;
83717;SDS011;73701;52.234;21.288;2024-03-08T02:45:16;110.43;;;49.92;;
83717;SDS011;73701;52.234;21.288;2024-03-08T02:47:42;104.57;;;48.25;;
83717;SDS011;73701;52.234;21.288;2024-03-08T02:50:07;104.17;;;49.80;;
83717;SDS011;73701;52.234;21.288;2024-03-08T02:52:36;100.07;;;47.90;;
83717;SDS011;73701;52.234;21.288;2024-03-08T02:55:02;101.93;;;47.50;;
83717;SDS011;73701;52.234;21.288;2024-03-08T02:57:27;107.65;;;48.15;;
83717;SDS011;73701;52.234;21.288;2024-03-08T02:59:53;113.22;;;49.92;;
83717;SDS011;73701;52.234;21.288;2024-03-08T03:02:18;112.82;;;53.75;;
83717;SDS011;73701;52.234;21.288;2024-03-08T03:04:44;105.70;;;49.33;;
83717;SDS011;73701;52.234;21.288;2024-03-08T03:07:09;104.73;;;48.27;;
83717;SDS011;73701;52.234;21.288;2024-03-08T03:09:34;98.20;;;47.70;;
83717;SDS011;73701;52.234;21.288;2024-03-08T03:12:00;101.77;;;47.00;;
83717;SDS011;73701;52.234;21.288;2024-03-08T03:14:25;104.65;;;48.03;;
83717;SDS011;73701;52.234;21.288;2024-03-08T03:16:53;104.68;;;47.85;;
83717;SDS011;73701;52.234;21.288;2024-03-08T03:19:19;105.78;;;49.25;;
83717;SDS011;73701;52.234;21.288;2024-03-08T03:21:44;103.78;;;49.63;;
83717;SDS011;73701;52.234;21.288;2024-03-08T03:24:10;110.32;;;48.03;;
83717;SDS011;73701;52.234;21.288;2024-03-08T03:26:38;100.97;;;45.87;;
83717;SDS011;73701;52.234;21.288;2024-03-08T03:29:07;94.95;;;47.35;;
83717;SDS011;73701;52.234;21.288;2024-03-08T03:31:34;100.00;;;48.75;;
83717;SDS011;73701;52.234;21.288;2024-03-08T03:34:00;94.20;;;48.30;;
83717;SDS011;73701;52.234;21.288;2024-03-08T03:36:28;98.78;;;45.78;;
83717;SDS011;73701;52.234;21.288;2024-03-08T03:38:54;113.93;;;49.28;;
83717;SDS011;73701;52.234;21.288;2024-03-08T03:41:30;105.00;;;45.95;;
83717;SDS011;73701;52.234;21.288;2024-03-08T03:43:56;88.13;;;45.17;;
83717;SDS011;73701;52.234;21.288;2024-03-08T03:46:21;102.53;;;47.97;;
83717;SDS011;73701;52.234;21.288;2024-03-08T03:48:46;94.47;;;44.47;;
83717;SDS011;73701;52.234;21.288;2024-03-08T03:51:11;102.00;;;46.20;;
83717;SDS011;73701;52.234;21.288;2024-03-08T03:53:37;97.78;;;47.75;;
83717;SDS011;73701;52.234;21.288;2024-03-08T03:56:02;96.22;;;45.35;;
83717;SDS011;73701;52.234;21.288;2024-03-08T03:58:31;95.32;;;46.33;;
83717;SDS011;73701;52.234;21.288;2024-03-08T04:00:57;98.40;;;47.83;;
83717;SDS011;73701;52.234;21.288;2024-03-08T04:03:22;109.37;;;48.73;;
83717;SDS011;73701;52.234;21.288;2024-03-08T04:05:48;99.53;;;45.60;;
83717;SDS011;73701;52.234;21.288;2024-03-08T04:08:13;103.43;;;46.08;;
83717;SDS011;73701;52.234;21.288;2024-03-08T04:10:39;98.32;;;47.80;;
83717;SDS011;73701;52.234;21.288;2024-03-08T04:13:04;99.10;;;45.47;;
83717;SDS011;73701;52.234;21.288;2024-03-08T04:15:29;93.27;;;46.17;;
83717;SDS011;73701;52.234;21.288;2024-03-08T04:17:55;97.78;;;43.80;;
83717;SDS011;73701;52.234;21.288;2024-03-08T04:20:22;93.53;;;45.47;;
83717;SDS011;73701;52.234;21.288;2024-03-08T04:22:47;93.00;;;46.67;;
83717;SDS011;73701;52.234;21.288;2024-03-08T04:25:14;104.38;;;52.22;;
83717;SDS011;73701;52.234;21.288;2024-03-08T04:27:39;99.30;;;46.70;;
83717;SDS011;73701;52.234;21.288;2024-03-08T04:30:05;92.75;;;46.75;;
83717;SDS011;73701;52.234;21.288;2024-03-08T04:32:34;99.88;;;49.20;;
83717;SDS011;73701;52.234;21.288;2024-03-08T04:35:00;103.73;;;46.10;;
83717;SDS011;73701;52.234;21.288;2024-03-08T04:37:28;96.85;;;47.08;;
83717;SDS011;73701;52.234;21.288;2024-03-08T04:39:57;89.25;;;45.08;;
83717;SDS011;73701;52.234;21.288;2024-03-08T04:42:23;97.78;;;48.00;;
83717;SDS011;73701;52.234;21.288;2024-03-08T04:44:48;94.70;;;45.78;;
83717;SDS011;73701;52.234;21.288;2024-03-08T04:47:14;111.10;;;50.67;;
83717;SDS011;73701;52.234;21.288;2024-03-08T04:49:39;87.40;;;44.40;;
83717;SDS011;73701;52.234;21.288;2024-03-08T04:52:04;103.27;;;47.83;;
83717;SDS011;73701;52.234;21.288;2024-03-08T04:54:30;94.78;;;47.78;;
83717;SDS011;73701;52.234;21.288;2024-03-08T04:56:56;106.47;;;45.97;;
83717;SDS011;73701;52.234;21.288;2024-03-08T04:59:22;97.40;;;50.83;;
83717;SDS011;73701;52.234;21.288;2024-03-08T05:01:47;103.90;;;45.92;;
83717;SDS011;73701;52.234;21.288;2024-03-08T05:04:13;98.60;;;43.47;;
83717;SDS011;73701;52.234;21.288;2024-03-08T05:06:38;92.55;;;46.15;;
83717;SDS011;73701;52.234;21.288;2024-03-08T05:09:04;105.43;;;51.87;;
83717;SDS011;73701;52.234;21.288;2024-03-08T05:11:44;100.47;;;49.00;;
83717;SDS011;73701;52.234;21.288;2024-03-08T05:14:11;100.65;;;46.05;;
83717;SDS011;73701;52.234;21.288;2024-03-08T05:16:41;93.82;;;46.17;;
83717;SDS011;73701;52.234;21.288;2024-03-08T05:19:07;112.90;;;47.33;;
83717;SDS011;73701;52.234;21.288;2024-03-08T05:21:32;98.90;;;48.43;;
83717;SDS011;73701;52.234;21.288;2024-03-08T05:23:58;110.15;;;48.95;;
83717;SDS011;73701;52.234;21.288;2024-03-08T05:26:23;98.25;;;48.47;;
83717;SDS011;73701;52.234;21.288;2024-03-08T05:28:48;90.93;;;46.60;;
83717;SDS011;73701;52.234;21.288;2024-03-08T05:31:23;99.50;;;48.05;;
83717;SDS011;73701;52.234;21.288;2024-03-08T05:33:48;92.10;;;42.38;;
83717;SDS011;73701;52.234;21.288;2024-03-08T05:36:14;106.13;;;48.90;;
83717;SDS011;73701;52.234;21.288;2024-03-08T05:38:41;92.13;;;45.40;;
83717;SDS011;73701;52.234;21.288;2024-03-08T05:41:08;98.25;;;45.13;;
83717;SDS011;73701;52.234;21.288;2024-03-08T05:43:34;103.53;;;49.42;;
83717;SDS011;73701;52.234;21.288;2024-03-08T05:45:59;96.97;;;44.67;;
83717;SDS011;73701;52.234;21.288;2024-03-08T05:48:24;92.07;;;47.93;;
83717;SDS011;73701;52.234;21.288;2024-03-08T05:50:50;95.88;;;48.17;;
83717;SDS011;73701;52.234;21.288;2024-03-08T05:53:15;93.13;;;44.25;;
83717;SDS011;73701;52.234;21.288;2024-03-08T05:55:40;101.40;;;47.65;;
83717;SDS011;73701;52.234;21.288;2024-03-08T05:58:06;100.97;;;47.40;;
83717;SDS011;73701;52.234;21.288;2024-03-08T06:00:32;92.85;;;43.67;;
83717;SDS011;73701;52.234;21.288;2024-03-08T06:02:59;111.07;;;49.60;;
83717;SDS011;73701;52.234;21.288;2024-03-08T06:05:24;107.95;;;55.08;;
83717;SDS011;73701;52.234;21.288;2024-03-08T06:07:50;103.47;;;50.50;;
83717;SDS011;73701;52.234;21.288;2024-03-08T06:10:18;100.57;;;48.45;;
83717;SDS011;73701;52.234;21.288;2024-03-08T06:12:44;118.57;;;49.15;;
83717;SDS011;73701;52.234;21.288;2024-03-08T06:15:10;115.55;;;48.08;;
83717;SDS011;73701;52.234;21.288;2024-03-08T06:17:39;106.00;;;46.35;;
83717;SDS011;73701;52.234;21.288;2024-03-08T06:20:04;111.30;;;48.77;;
83717;SDS011;73701;52.234;21.288;2024-03-08T06:22:35;109.43;;;49.83;;
83717;SDS011;73701;52.234;21.288;2024-03-08T06:25:01;103.07;;;49.80;;
83717;SDS011;73701;52.234;21.288;2024-03-08T06:27:27;106.18;;;49.53;;
83717;SDS011;73701;52.234;21.288;2024-03-08T06:29:52;101.72;;;50.92;;
83717;SDS011;73701;52.234;21.288;2024-03-08T06:32:17;99.23;;;52.80;;
83717;SDS011;73701;52.234;21.288;2024-03-08T06:34:43;101.53;;;52.63;;
83717;SDS011;73701;52.234;21.288;2024-03-08T06:37:09;107.90;;;53.20;;
83717;SDS011;73701;52.234;21.288;2024-03-08T06:39:34;110.93;;;51.87;;
83717;SDS011;73701;52.234;21.288;2024-03-08T06:42:00;115.30;;;57.80;;
83717;SDS011;73701;52.234;21.288;2024-03-08T06:44:26;113.57;;;56.75;;
83717;SDS011;73701;52.234;21.288;2024-03-08T06:46:52;115.05;;;56.42;;
83717;SDS011;73701;52.234;21.288;2024-03-08T06:49:17;109.53;;;56.03;;
83717;SDS011;73701;52.234;21.288;2024-03-08T06:51:42;117.80;;;58.17;;
83717;SDS011;73701;52.234;21.288;2024-03-08T06:54:08;115.85;;;58.65;;
83717;SDS011;73701;52.234;21.288;2024-03-08T06:56:37;127.82;;;55.45;;
83717;SDS011;73701;52.234;21.288;2024-03-08T06:59:02;123.80;;;56.22;;
83717;SDS011;73701;52.234;21.288;2024-03-08T07:01:28;122.60;;;55.75;;
83717;SDS011;73701;52.234;21.288;2024-03-08T07:03:57;124.95;;;56.95;;
83717;SDS011;73701;52.234;21.288;2024-03-08T07:06:22;125.88;;;57.00;;
83717;SDS011;73701;52.234;21.288;2024-03-08T07:08:48;125.32;;;61.85;;
83717;SDS011;73701;52.234;21.288;2024-03-08T07:11:13;122.35;;;61.70;;
83717;SDS011;73701;52.234;21.288;2024-03-08T07:13:43;122.03;;;58.25;;
83717;SDS011;73701;52.234;21.288;2024-03-08T07:16:08;118.57;;;58.07;;
83717;SDS011;73701;52.234;21.288;2024-03-08T07:18:33;115.33;;;57.03;;
83717;SDS011;73701;52.234;21.288;2024-03-08T07:21:00;125.13;;;56.30;;
83717;SDS011;73701;52.234;21.288;2024-03-08T07:23:27;111.32;;;57.53;;
83717;SDS011;73701;52.234;21.288;2024-03-08T07:26:10;105.65;;;52.85;;
83717;SDS011;73701;52.234;21.288;2024-03-08T07:28:36;111.40;;;55.53;;
83717;SDS011;73701;52.234;21.288;2024-03-08T07:31:02;102.65;;;51.45;;
83717;SDS011;73701;52.234;21.288;2024-03-08T07:33:42;115.68;;;52.25;;
83717;SDS011;73701;52.234;21.288;2024-03-08T07:36:07;103.55;;;52.75;;
83717;SDS011;73701;52.234;21.288;2024-03-08T07:38:33;100.22;;;48.13;;
83717;SDS011;73701;52.234;21.288;2024-03-08T07:40:59;111.15;;;47.00;;
83717;SDS011;73701;52.234;21.288;2024-03-08T07:43:25;97.50;;;45.65;;
83717;SDS011;73701;52.234;21.288;2024-03-08T07:45:50;93.93;;;43.57;;
83717;SDS011;73701;52.234;21.288;2024-03-08T07:48:17;101.28;;;47.88;;
83717;SDS011;73701;52.234;21.288;2024-03-08T07:50:43;95.72;;;46.33;;
83717;SDS011;73701;52.234;21.288;2024-03-08T07:53:08;90.50;;;40.97;;
83717;SDS011;73701;52.234;21.288;2024-03-08T07:55:34;87.10;;;39.87;;
83717;SDS011;73701;52.234;21.288;2024-03-08T07:58:00;80.03;;;41.55;;
83717;SDS011;73701;52.234;21.288;2024-03-08T08:00:26;86.47;;;41.40;;
83717;SDS011;73701;52.234;21.288;2024-03-08T08:02:52;7.05;;;5.38;;
83717;SDS011;73701;52.234;21.288;2024-03-08T08:05:18;83.10;;;42.20;;
83717;SDS011;73701;52.234;21.288;2024-03-08T08:07:44;75.23;;;37.20;;
83717;SDS011;73701;52.234;21.288;2024-03-08T08:10:11;78.80;;;35.63;;
83717;SDS011;73701;52.234;21.288;2024-03-08T08:12:43;73.72;;;34.90;;
83717;SDS011;73701;52.234;21.288;2024-03-08T08:15:08;82.55;;;39.15;;
83717;SDS011;73701;52.234;21.288;2024-03-08T08:17:34;76.80;;;35.83;;
83717;SDS011;73701;52.234;21.288;2024-03-08T08:19:59;119.65;;;51.80;;
83717;SDS011;73701;52.234;21.288;2024-03-08T08:22:25;104.85;;;40.13;;
83717;SDS011;73701;52.234;21.288;2024-03-08T08:24:50;142.60;;;54.70;;
83717;SDS011;73701;52.234;21.288;2024-03-08T08:27:17;102.22;;;43.38;;
83717;SDS011;73701;52.234;21.288;2024-03-08T08:29:42;71.60;;;34.80;;
83717;SDS011;73701;52.234;21.288;2024-03-08T08:32:08;71.63;;;33.55;;
83717;SDS011;73701;52.234;21.288;2024-03-08T08:34:33;194.30;;;68.07;;
83717;SDS011;73701;52.234;21.288;2024-03-08T08:36:58;92.27;;;41.13;;
83717;SDS011;73701;52.234;21.288;2024-03-08T08:39:24;109.27;;;44.63;;
83717;SDS011;73701;52.234;21.288;2024-03-08T08:41:50;82.97;;;35.20;;
83717;SDS011;73701;52.234;21.288;2024-03-08T08:44:16;61.70;;;28.33;;
83717;SDS011;73701;52.234;21.288;2024-03-08T08:46:41;62.97;;;28.00;;
83717;SDS011;73701;52.234;21.288;2024-03-08T08:49:07;62.17;;;29.40;;
83717;SDS011;73701;52.234;21.288;2024-03-08T08:51:35;60.72;;;29.05;;
83717;SDS011;73701;52.234;21.288;2024-03-08T08:54:01;91.28;;;35.08;;
83717;SDS011;73701;52.234;21.288;2024-03-08T08:56:27;56.03;;;26.40;;
83717;SDS011;73701;52.234;21.288;2024-03-08T08:58:53;43.88;;;20.60;;
83717;SDS011;73701;52.234;21.288;2024-03-08T09:01:19;55.38;;;26.35;;
83717;SDS011;73701;52.234;21.288;2024-03-08T09:03:45;65.05;;;28.65;;
83717;SDS011;73701;52.234;21.288;2024-03-08T09:06:11;217.52;;;82.88;;
83717;SDS011;73701;52.234;21.288;2024-03-08T09:08:38;80.13;;;36.47;;
83717;SDS011;73701;52.234;21.288;2024-03-08T09:11:06;48.22;;;23.10;;
83717;SDS011;73701;52.234;21.288;2024-03-08T09:13:32;46.57;;;19.60;;
83717;SDS011;73701;52.234;21.288;2024-03-08T09:15:58;46.47;;;22.02;;
83717;SDS011;73701;52.234;21.288;2024-03-08T09:18:24;111.03;;;46.17;;
83717;SDS011;73701;52.234;21.288;2024-03-08T09:20:50;45.03;;;21.17;;
83717;SDS011;73701;52.234;21.288;2024-03-08T09:23:16;59.55;;;25.67;;
83717;SDS011;73701;52.234;21.288;2024-03-08T09:25:44;52.28;;;22.88;;
83717;SDS011;73701;52.234;21.288;2024-03-08T09:28:10;36.60;;;20.27;;
83717;SDS011;73701;52.234;21.288;2024-03-08T09:30:37;35.20;;;18.73;;
83717;SDS011;73701;52.234;21.288;2024-03-08T09:33:03;52.88;;;26.23;;
83717;SDS011;73701;52.234;21.288;2024-03-08T09:35:29;144.88;;;60.22;;
83717;SDS011;73701;52.234;21.288;2024-03-08T09:37:55;65.93;;;31.30;;
83717;SDS011;73701;52.234;21.288;2024-03-08T09:40:20;29.73;;;14.70;;
83717;SDS011;73701;52.234;21.288;2024-03-08T09:42:48;30.17;;;15.82;;
83717;SDS011;73701;52.234;21.288;2024-03-08T09:45:14;31.92;;;16.35;;
83717;SDS011;73701;52.234;21.288;2024-03-08T09:47:42;32.60;;;17.52;;
83717;SDS011;73701;52.234;21.288;2024-03-08T09:50:09;30.13;;;14.95;;
83717;SDS011;73701;52.234;21.288;2024-03-08T09:52:41;24.45;;;13.32;;
83717;SDS011;73701;52.234;21.288;2024-03-08T09:55:09;27.27;;;13.68;;
83717;SDS011;73701;52.234;21.288;2024-03-08T09:57:36;29.30;;;14.27;;
83717;SDS011;73701;52.234;21.288;2024-03-08T10:00:02;23.92;;;15.40;;
83717;SDS011;73701;52.234;21.288;2024-03-08T10:02:44;24.27;;;14.05;;
83717;SDS011;73701;52.234;21.288;2024-03-08T10:05:10;32.53;;;16.05;;
83717;SDS011;73701;52.234;21.288;2024-03-08T10:07:37;28.60;;;14.38;;
83717;SDS011;73701;52.234;21.288;2024-03-08T10:10:02;33.93;;;14.20;;
83717;SDS011;73701;52.234;21.288;2024-03-08T10:12:28;23.92;;;13.32;;
83717;SDS011;73701;52.234;21.288;2024-03-08T10:14:58;25.25;;;13.00;;
83717;SDS011;73701;52.234;21.288;2024-03-08T10:17:23;29.80;;;20.77;;
83717;SDS011;73701;52.234;21.288;2024-03-08T10:19:49;31.40;;;16.70;;
83717;SDS011;73701;52.234;21.288;2024-03-08T10:22:16;26.27;;;14.68;;
83717;SDS011;73701;52.234;21.288;2024-03-08T10:24:41;119.90;;;48.15;;
83717;SDS011;73701;52.234;21.288;2024-03-08T10:27:06;21.53;;;12.53;;
83717;SDS011;73701;52.234;21.288;2024-03-08T10:29:32;21.77;;;11.85;;
83717;SDS011;73701;52.234;21.288;2024-03-08T10:31:58;23.23;;;11.85;;
83717;SDS011;73701;52.234;21.288;2024-03-08T10:34:23;20.35;;;11.40;;
83717;SDS011;73701;52.234;21.288;2024-03-08T10:36:49;25.55;;;12.35;;
83717;SDS011;73701;52.234;21.288;2024-03-08T10:41:47;26.10;;;12.75;;
83717;SDS011;73701;52.234;21.288;2024-03-08T10:45:09;26.08;;;11.23;;
83717;SDS011;73701;52.234;21.288;2024-03-08T10:49:50;21.10;;;10.70;;
83717;SDS011;73701;52.234;21.288;2024-03-08T10:52:20;21.75;;;10.82;;
83717;SDS011;73701;52.234;21.288;2024-03-08T10:54:47;18.52;;;11.20;;
83717;SDS011;73701;52.234;21.288;2024-03-08T10:57:13;17.98;;;10.88;;
83717;SDS011;73701;52.234;21.288;2024-03-08T10:59:40;20.85;;;11.60;;
83717;SDS011;73701;52.234;21.288;2024-03-08T11:02:08;20.92;;;10.10;;
83717;SDS011;73701;52.234;21.288;2024-03-08T11:04:36;22.48;;;11.85;;
83717;SDS011;73701;52.234;21.288;2024-03-08T11:07:02;23.40;;;11.95;;
83717;SDS011;73701;52.234;21.288;2024-03-08T11:09:31;23.60;;;10.95;;
83717;SDS011;73701;52.234;21.288;2024-03-08T11:14:55;25.27;;;16.00;;
83717;SDS011;73701;52.234;21.288;2024-03-08T11:19:56;23.13;;;11.02;;
83717;SDS011;73701;52.234;21.288;2024-03-08T11:22:22;18.17;;;10.50;;
83717;SDS011;73701;52.234;21.288;2024-03-08T11:24:51;19.15;;;10.77;;
83717;SDS011;73701;52.234;21.288;2024-03-08T11:27:17;30.55;;;11.95;;
83717;SDS011;73701;52.234;21.288;2024-03-08T11:29:42;23.63;;;11.17;;
83717;SDS011;73701;52.234;21.288;2024-03-08T11:32:08;23.20;;;11.15;;
83717;SDS011;73701;52.234;21.288;2024-03-08T11:34:35;19.70;;;10.75;;
83717;SDS011;73701;52.234;21.288;2024-03-08T11:37:04;24.70;;;11.77;;
83717;SDS011;73701;52.234;21.288;2024-03-08T11:39:30;23.48;;;12.45;;
83717;SDS011;73701;52.234;21.288;2024-03-08T11:41:56;24.10;;;12.38;;
83717;SDS011;73701;52.234;21.288;2024-03-08T11:44:24;27.42;;;11.93;;
83717;SDS011;73701;52.234;21.288;2024-03-08T11:49:17;22.20;;;10.17;;
83717;SDS011;73701;52.234;21.288;2024-03-08T11:51:43;21.88;;;11.98;;
83717;SDS011;73701;52.234;21.288;2024-03-08T11:54:11;23.40;;;12.87;;
83717;SDS011;73701;52.234;21.288;2024-03-08T11:56:40;20.05;;;10.85;;
83717;SDS011;73701;52.234;21.288;2024-03-08T11:59:10;23.85;;;11.13;;
83717;SDS011;73701;52.234;21.288;2024-03-08T12:01:37;22.60;;;11.23;;
83717;SDS011;73701;52.234;21.288;2024-03-08T12:04:03;23.45;;;11.95;;
83717;SDS011;73701;52.234;21.288;2024-03-08T12:06:40;28.75;;;15.82;;
83717;SDS011;73701;52.234;21.288;2024-03-08T12:09:09;21.83;;;12.05;;
83717;SDS011;73701;52.234;21.288;2024-03-08T12:11:36;24.05;;;12.27;;
83717;SDS011;73701;52.234;21.288;2024-03-08T12:14:02;27.52;;;15.18;;
83717;SDS011;73701;52.234;21.288;2024-03-08T12:16:28;20.98;;;11.80;;
83717;SDS011;73701;52.234;21.288;2024-03-08T12:18:54;20.40;;;10.93;;
83717;SDS011;73701;52.234;21.288;2024-03-08T12:21:20;18.83;;;10.02;;
83717;SDS011;73701;52.234;21.288;2024-03-08T12:23:53;20.10;;;11.10;;
83717;SDS011;73701;52.234;21.288;2024-03-08T12:26:28;22.15;;;11.65;;
83717;SDS011;73701;52.234;21.288;2024-03-08T12:28:53;16.17;;;9.50;;
83717;SDS011;73701;52.234;21.288;2024-03-08T12:31:18;18.33;;;9.10;;
83717;SDS011;73701;52.234;21.288;2024-03-08T12:33:54;17.65;;;10.02;;
83717;SDS011;73701;52.234;21.288;2024-03-08T12:36:24;29.38;;;15.55;;
83717;SDS011;73701;52.234;21.288;2024-03-08T12:38:50;23.60;;;11.68;;
83717;SDS011;73701;52.234;21.288;2024-03-08T12:41:19;22.45;;;11.70;;
83717;SDS011;73701;52.234;21.288;2024-03-08T12:43:46;27.48;;;18.10;;
83717;SDS011;73701;52.234;21.288;2024-03-08T12:46:18;18.50;;;10.55;;
83717;SDS011;73701;52.234;21.288;2024-03-08T12:48:47;18.77;;;11.48;;
83717;SDS011;73701;52.234;21.288;2024-03-08T12:51:16;19.52;;;10.98;;
83717;SDS011;73701;52.234;21.288;2024-03-08T12:53:43;19.38;;;10.40;;
83717;SDS011;73701;52.234;21.288;2024-03-08T12:56:09;19.55;;;10.43;;
83717;SDS011;73701;52.234;21.288;2024-03-08T12:58:35;18.27;;;11.30;;
83717;SDS011;73701;52.234;21.288;2024-03-08T13:01:01;19.85;;;10.77;;
83717;SDS011;73701;52.234;21.288;2024-03-08T13:03:29;21.73;;;10.45;;
83717;SDS011;73701;52.234;21.288;2024-03-08T13:05:55;22.35;;;11.25;;
83717;SDS011;73701;52.234;21.288;2024-03-08T13:08:22;24.83;;;12.40;;
83717;SDS011;73701;52.234;21.288;2024-03-08T13:10:49;26.63;;;12.23;;
83717;SDS011;73701;52.234;21.288;2024-03-08T13:13:16;22.98;;;11.30;;
83717;SDS011;73701;52.234;21.288;2024-03-08T13:15:42;22.77;;;11.70;;
83717;SDS011;73701;52.234;21.288;2024-03-08T13:18:07;32.95;;;21.90;;
83717;SDS011;73701;52.234;21.288;2024-03-08T13:20:34;27.30;;;18.83;;
83717;SDS011;73701;52.234;21.288;2024-03-08T13:23:02;24.45;;;12.30;;
83717;SDS011;73701;52.234;21.288;2024-03-08T13:25:27;90.40;;;44.28;;
83717;SDS011;73701;52.234;21.288;2024-03-08T13:27:53;28.00;;;14.20;;
83717;SDS011;73701;52.234;21.288;2024-03-08T13:30:23;69.43;;;36.58;;
83717;SDS011;73701;52.234;21.288;2024-03-08T13:32:51;25.02;;;14.55;;
83717;SDS011;73701;52.234;21.288;2024-03-08T13:35:17;71.78;;;38.08;;
83717;SDS011;73701;52.234;21.288;2024-03-08T13:37:49;33.53;;;16.60;;
83717;SDS011;73701;52.234;21.288;2024-03-08T13:40:14;22.38;;;13.48;;
83717;SDS011;73701;52.234;21.288;2024-03-08T13:42:43;29.33;;;12.50;;
83717;SDS011;73701;52.234;21.288;2024-03-08T13:45:09;53.17;;;23.40;;
83717;SDS011;73701;52.234;21.288;2024-03-08T13:47:38;25.80;;;12.82;;
83717;SDS011;73701;52.234;21.288;2024-03-08T13:50:08;31.15;;;16.73;;
83717;SDS011;73701;52.234;21.288;2024-03-08T13:52:38;28.88;;;12.38;;
83717;SDS011;73701;52.234;21.288;2024-03-08T13:55:04;23.50;;;11.77;;
83717;SDS011;73701;52.234;21.288;2024-03-08T13:57:32;21.60;;;11.18;;
83717;SDS011;73701;52.234;21.288;2024-03-08T13:59:58;23.23;;;12.40;;
83717;SDS011;73701;52.234;21.288;2024-03-08T14:02:24;21.05;;;11.07;;
83717;SDS011;73701;52.234;21.288;2024-03-08T14:04:53;19.98;;;11.38;;
83717;SDS011;73701;52.234;21.288;2024-03-08T14:07:19;117.97;;;50.38;;
83717;SDS011;73701;52.234;21.288;2024-03-08T14:09:45;24.30;;;12.38;;
83717;SDS011;73701;52.234;21.288;2024-03-08T14:12:10;22.07;;;11.20;;
83717;SDS011;73701;52.234;21.288;2024-03-08T14:14:35;21.77;;;11.77;;